createdAt,value
2017-11-26T14:54:14.244Z,4.10
2017-11-26T14:56:42.919Z,4.00
2017-11-26T14:59:11.376Z,4.00
2017-11-26T15:01:39.881Z,4.00
2017-11-26T15:04:08.539Z,3.90
2017-11-26T15:06:36.988Z,3.90
2017-11-26T15:09:06.204Z,4.00
2017-11-26T15:11:34.894Z,3.90
2017-11-26T15:14:03.413Z,4.00
2017-11-26T15:16:31.854Z,3.90
2017-11-26T15:19:00.316Z,3.90
2017-11-26T15:21:28.770Z,3.90
2017-11-26T15:23:57.227Z,3.90
2017-11-26T15:26:26.703Z,3.90
2017-11-26T15:28:55.179Z,3.90
2017-11-26T15:31:23.644Z,3.90
2017-11-26T15:33:53.979Z,3.90
2017-11-26T15:36:22.485Z,3.90
2017-11-26T15:38:51.751Z,3.80
2017-11-26T15:41:20.250Z,3.80
2017-11-26T15:43:48.721Z,3.70
2017-11-26T15:46:17.194Z,3.70
2017-11-26T15:48:45.877Z,3.70
2017-11-26T15:51:14.374Z,3.60
2017-11-26T15:53:43.984Z,3.60
2017-11-26T15:58:14.311Z,3.50
2017-11-26T16:00:43.547Z,3.50
2017-11-26T16:03:13.027Z,3.50
2017-11-26T16:05:41.534Z,3.50
2017-11-26T16:08:10.041Z,3.40
2017-11-26T16:10:38.487Z,3.40
2017-11-26T16:13:07.810Z,3.40
2017-11-26T16:15:36.297Z,3.40
2017-11-26T16:18:04.788Z,3.40
2017-11-26T16:20:33.284Z,3.40
2017-11-26T16:23:01.726Z,3.30
2017-11-26T16:25:30.943Z,3.40
2017-11-26T16:27:59.588Z,3.40
2017-11-26T16:30:28.028Z,3.40
2017-11-26T16:32:56.498Z,3.40
2017-11-26T16:35:25.143Z,3.40
2017-11-26T16:37:54.362Z,3.40
2017-11-26T16:40:22.828Z,3.40
2017-11-26T16:42:52.121Z,3.30
2017-11-26T16:45:21.389Z,3.40
2017-11-26T16:47:49.861Z,3.40
2017-11-26T16:50:18.447Z,3.40
2017-11-26T16:52:46.949Z,3.40
2017-11-26T16:55:15.573Z,3.40
2017-11-26T16:57:44.364Z,3.40
2017-11-26T17:00:12.836Z,3.40
2017-11-26T17:02:41.301Z,3.40
2017-11-26T17:05:11.029Z,3.40
2017-11-26T17:07:39.511Z,3.40
2017-11-26T17:10:07.958Z,3.40
2017-11-26T17:15:11.626Z,3.40
2017-11-26T17:17:40.382Z,3.40
2017-11-26T17:20:09.658Z,3.40
2017-11-26T17:22:38.900Z,3.30
2017-11-26T17:25:07.444Z,3.30
2017-11-26T17:27:36.764Z,3.30
2017-11-26T17:30:06.000Z,3.30
2017-11-26T17:32:34.750Z,3.30
2017-11-26T17:35:03.971Z,3.30
2017-11-26T17:37:32.433Z,3.30
2017-11-26T17:40:02.134Z,3.30
2017-11-26T17:42:31.373Z,3.20
2017-11-26T17:44:59.841Z,3.20
2017-11-26T17:47:28.522Z,3.20
2017-11-26T17:49:57.039Z,3.20
2017-11-26T17:52:25.575Z,3.10
2017-11-26T17:54:54.081Z,3.10
2017-11-26T17:57:22.972Z,3.10
2017-11-26T17:59:51.453Z,3.10
2017-11-26T18:02:20.218Z,3.10
2017-11-26T18:04:49.441Z,3.10
2017-11-26T18:07:17.872Z,3.10
2017-11-26T18:09:46.326Z,3.10
2017-11-26T18:12:14.754Z,3.20
2017-11-26T18:14:43.952Z,3.10
2017-11-26T18:17:13.624Z,3.10
2017-11-26T18:19:42.022Z,3.10
2017-11-26T18:22:11.187Z,3.10
2017-11-26T18:24:39.756Z,3.10
2017-11-26T18:27:08.162Z,3.10
2017-11-26T18:29:36.613Z,3.10
2017-11-26T18:32:05.233Z,3.00
2017-11-26T18:34:33.645Z,3.10
2017-11-26T18:37:02.065Z,3.00
2017-11-26T18:39:30.715Z,3.00
2017-11-26T18:41:59.196Z,3.10
2017-11-26T18:44:27.621Z,3.10
2017-11-26T18:46:56.203Z,3.10
2017-11-26T18:49:24.602Z,3.00
2017-11-26T18:51:53.062Z,3.00
2017-11-26T18:54:22.218Z,3.00
2017-11-26T18:56:50.626Z,3.00
2017-11-26T18:59:19.310Z,3.00
2017-11-26T19:01:47.894Z,3.00
2017-11-26T19:04:16.299Z,3.10
2017-11-26T19:06:44.751Z,3.10
2017-11-26T19:09:13.226Z,3.10
2017-11-26T19:11:41.677Z,3.10
2017-11-26T19:14:10.863Z,3.10
2017-11-26T19:16:40.120Z,3.10
2017-11-26T19:19:08.612Z,3.10
2017-11-26T19:21:36.994Z,3.20
2017-11-26T19:24:05.577Z,3.20
2017-11-26T19:26:33.991Z,3.20
2017-11-26T19:29:03.197Z,3.20
2017-11-26T19:31:32.291Z,3.20
2017-11-26T19:34:01.486Z,3.20
2017-11-26T19:36:30.689Z,3.20
2017-11-26T19:38:59.202Z,3.20
2017-11-26T19:41:27.786Z,3.20
2017-11-26T19:43:56.595Z,3.30
2017-11-26T19:46:25.212Z,3.20
2017-11-26T19:48:54.366Z,3.30
2017-11-26T19:51:22.865Z,3.30
2017-11-26T19:53:51.352Z,3.30
2017-11-26T19:56:20.144Z,3.30
2017-11-26T19:58:51.128Z,3.30
2017-11-26T20:01:19.973Z,3.40
2017-11-26T20:03:48.462Z,3.40
2017-11-26T20:06:17.648Z,3.40
2017-11-26T20:08:46.340Z,3.40
2017-11-26T20:11:14.821Z,3.40
2017-11-26T20:13:43.292Z,3.40
2017-11-26T20:16:11.830Z,3.40
2017-11-26T20:18:40.218Z,3.40
2017-11-26T20:21:08.718Z,3.40
2017-11-26T20:23:37.453Z,3.40
2017-11-26T20:26:12.201Z,3.40
2017-11-26T20:28:40.673Z,3.40
2017-11-26T20:31:09.089Z,3.40
2017-11-26T20:33:37.493Z,3.40
2017-11-26T20:36:06.105Z,3.40
2017-11-26T20:38:35.251Z,3.40
2017-11-26T20:41:03.666Z,3.40
2017-11-26T20:43:32.304Z,3.40
2017-11-26T20:46:00.731Z,3.40
2017-11-26T20:48:29.117Z,3.40
2017-11-26T20:50:58.459Z,3.50
2017-11-26T20:53:26.864Z,3.50
2017-11-26T20:55:55.302Z,3.50
2017-11-26T20:58:23.975Z,3.50
2017-11-26T21:00:52.431Z,3.50
2017-11-26T21:03:22.733Z,3.50
2017-11-26T21:05:51.978Z,3.50
2017-11-26T21:08:21.168Z,3.40
2017-11-26T21:10:50.354Z,3.40
2017-11-26T21:13:19.120Z,3.40
2017-11-26T21:15:47.504Z,3.40
2017-11-26T21:18:15.904Z,3.40
2017-11-26T21:20:45.292Z,3.40
2017-11-26T21:23:13.727Z,3.40
2017-11-26T21:25:42.199Z,3.40
2017-11-26T21:28:10.631Z,3.40
2017-11-26T21:30:39.095Z,3.40
2017-11-26T21:33:07.519Z,3.40
2017-11-26T21:35:36.910Z,3.50
2017-11-26T21:38:06.086Z,3.50
2017-11-26T21:40:34.494Z,3.50
2017-11-26T21:43:03.711Z,3.50
2017-11-26T21:45:32.361Z,3.50
2017-11-26T21:48:00.748Z,3.50
2017-11-26T21:50:29.238Z,3.50
2017-11-26T21:52:58.460Z,3.50
2017-11-26T21:55:26.864Z,3.50
2017-11-26T21:57:55.498Z,3.50
2017-11-26T22:00:24.707Z,3.50
2017-11-26T22:02:53.132Z,3.50
2017-11-26T22:05:21.977Z,3.50
2017-11-26T22:07:50.418Z,3.50
2017-11-26T22:10:18.864Z,3.50
2017-11-26T22:12:47.609Z,3.50
2017-11-26T22:15:16.775Z,3.50
2017-11-26T22:17:45.168Z,3.50
2017-11-26T22:20:14.553Z,3.50
2017-11-26T22:22:43.255Z,3.50
2017-11-26T22:25:11.702Z,3.50
2017-11-26T22:27:40.300Z,3.50
2017-11-26T22:30:09.484Z,3.40
2017-11-26T22:32:37.867Z,3.40
2017-11-26T22:35:06.511Z,3.50
2017-11-26T22:37:35.679Z,3.50
2017-11-26T22:40:04.192Z,3.50
2017-11-26T22:42:32.931Z,3.50
2017-11-26T22:45:02.189Z,3.40
2017-11-26T22:47:30.748Z,3.40
2017-11-26T22:50:00.358Z,3.40
2017-11-26T22:52:29.544Z,3.40
2017-11-26T22:54:58.721Z,3.30
2017-11-26T22:57:27.177Z,3.30
2017-11-26T22:59:55.625Z,3.40
2017-11-26T23:02:24.054Z,3.40
2017-11-26T23:04:52.506Z,3.30
2017-11-26T23:07:21.374Z,3.30
2017-11-26T23:09:49.769Z,3.40
2017-11-26T23:12:18.761Z,3.30
2017-11-26T23:14:47.176Z,3.30
2017-11-26T23:17:15.687Z,3.20
2017-11-26T23:19:44.918Z,3.10
2017-11-26T23:22:13.371Z,3.00
2017-11-26T23:24:42.877Z,2.80
2017-11-26T23:27:12.209Z,2.80
2017-11-26T23:29:40.667Z,2.80
2017-11-26T23:32:09.103Z,2.70
2017-11-26T23:34:37.614Z,2.80
2017-11-26T23:37:06.035Z,2.70
2017-11-26T23:39:34.408Z,2.80
2017-11-26T23:42:03.159Z,2.80
2017-11-26T23:44:31.559Z,2.70
2017-11-26T23:47:00.000Z,2.70
2017-11-26T23:49:29.018Z,2.70
2017-11-26T23:51:58.194Z,2.70
2017-11-26T23:54:26.596Z,2.70
2017-11-26T23:56:55.971Z,2.70
2017-11-26T23:59:24.341Z,2.70
